Time;durP1;ratioP1;P1;durP2;ratioP2;P2;SDS_P1;SDS_P2;PMS_P1;PMS_P2;Temp;Humidity;BMP_temperature;BMP_pressure;BME280_temperature;BME280_humidity;BME280_pressure;Samples;Min_cycle;Max_cycle;Signal;HPM_P1;HPM_P2
2022/06/10 00:02:11;;;;;;;4.03;3.83;;;;;;;;;;5093703;28;20925;-66
2022/06/10 00:04:37;;;;;;;6.43;3.80;;;;;;;;;;5093602;28;20393;-66
2022/06/10 00:07:03;;;;;;;4.83;3.63;;;;;;;;;;5093553;28;20395;-66
2022/06/10 00:09:29;;;;;;;3.87;3.67;;;;;;;;;;5093513;28;20390;-66
2022/06/10 00:11:55;;;;;;;4.30;3.90;;;;;;;;;;5093455;28;20411;-66
2022/06/10 00:14:21;;;;;;;3.73;3.43;;;;;;;;;;5093501;28;20758;-65
2022/06/10 00:16:47;;;;;;;4.20;3.50;;;;;;;;;;5093453;28;20560;-66
2022/06/10 00:19:13;;;;;;;3.67;3.37;;;;;;;;;;5093675;28;20397;-65
2022/06/10 00:21:39;;;;;;;4.97;4.50;;;;;;;;;;5093458;28;20406;-66
2022/06/10 00:24:05;;;;;;;3.97;3.50;;;;;;;;;;5092398;28;20420;-66
2022/06/10 00:26:31;;;;;;;8.60;4.23;;;;;;;;;;5093337;28;20772;-67
2022/06/10 00:28:59;;;;;;;12.90;4.13;;;;;;;;;;5096872;28;20460;-66
2022/06/10 00:31:26;;;;;;;5.27;4.17;;;;;;;;;;5097449;28;20444;-65
2022/06/10 00:33:52;;;;;;;4.10;3.90;;;;;;;;;;5097263;28;20891;-65
2022/06/10 00:36:19;;;;;;;5.60;4.00;;;;;;;;;;5097206;28;20949;-66
2022/06/10 00:38:46;;;;;;;12.93;3.70;;;;;;;;;;5097258;28;20405;-66
2022/06/10 00:41:12;;;;;;;9.40;4.50;;;;;;;;;;5097298;28;20397;-66
2022/06/10 00:43:38;;;;;;;3.97;3.87;;;;;;;;;;5097172;28;20405;-67
2022/06/10 00:46:19;;;;;;;7.70;4.00;;;;;;;;;;5095800;28;20508;-65
2022/06/10 00:49:04;;;;;;;3.80;3.50;;;;;;;;;;5097122;28;20409;-66
2022/06/10 00:51:35;;;;;;;4.27;3.97;;;;;;;;;;5096948;28;20408;-65
2022/06/10 00:54:07;;;;;;;4.33;4.13;;;;;;;;;;5095716;28;20806;-67
2022/06/10 00:56:33;;;;;;;3.70;3.50;;;;;;;;;;5097168;28;20469;-68
2022/06/10 00:59:04;;;;;;;3.90;3.60;;;;;;;;;;5096896;28;20922;-67
2022/06/10 01:01:31;;;;;;;5.97;4.80;;;;;;;;;;5096863;28;20397;-67
2022/06/10 01:03:58;;;;;;;3.90;3.60;;;;;;;;;;5096755;28;20605;-67
2022/06/10 01:06:24;;;;;;;3.90;3.80;;;;;;;;;;5096767;28;20425;-68
2022/06/10 01:08:51;;;;;;;3.93;3.30;;;;;;;;;;5096798;28;20394;-65
2022/06/10 01:11:27;;;;;;;4.03;3.80;;;;;;;;;;5096853;28;20493;-65
2022/06/10 01:14:12;;;;;;;3.40;3.10;;;;;;;;;;5096607;28;20401;-65
2022/06/10 01:16:41;;;;;;;4.30;3.27;;;;;;;;;;5096444;28;20543;-65
2022/06/10 01:19:19;;;;;;;3.50;3.40;;;;;;;;;;5096505;28;20477;-65
2022/06/10 01:22:10;;;;;;;4.03;3.60;;;;;;;;;;5096370;28;20788;-65
2022/06/10 01:24:48;;;;;;;5.30;3.30;;;;;;;;;;5096375;28;20504;-65
2022/06/10 01:30:02;;;;;;;4.13;3.70;;;;;;;;;;5096159;28;20463;-66
2022/06/10 01:32:28;;;;;;;3.80;3.50;;;;;;;;;;5096219;28;20399;-67
2022/06/10 01:35:00;;;;;;;3.70;3.50;;;;;;;;;;5094951;28;20427;-67
2022/06/10 01:37:29;;;;;;;6.53;4.23;;;;;;;;;;5096276;28;20500;-67
2022/06/10 01:39:55;;;;;;;3.70;3.40;;;;;;;;;;5094865;28;20486;-66
2022/06/10 01:42:37;;;;;;;6.93;2.90;;;;;;;;;;5096020;28;20429;-66
2022/06/10 01:45:32;;;;;;;3.53;3.03;;;;;;;;;;5095983;28;20903;-66
2022/06/10 01:48:01;;;;;;;3.77;3.03;;;;;;;;;;5023989;28;20800;-66
2022/06/10 01:50:32;;;;;;;4.03;3.73;;;;;;;;;;5095919;28;20488;-66
2022/06/10 01:53:03;;;;;;;3.67;3.37;;;;;;;;;;5095797;28;20405;-66
2022/06/10 01:55:32;;;;;;;3.70;3.40;;;;;;;;;;5095782;28;20761;-65
2022/06/10 01:58:05;;;;;;;5.70;3.47;;;;;;;;;;5095705;28;20843;-66
2022/06/10 02:00:32;;;;;;;4.10;3.37;;;;;;;;;;5095727;28;20400;-66
2022/06/10 02:02:58;;;;;;;6.33;3.97;;;;;;;;;;5095672;28;20438;-66
2022/06/10 02:05:26;;;;;;;3.43;3.33;;;;;;;;;;5095592;28;20399;-67
2022/06/10 02:07:59;;;;;;;4.50;3.67;;;;;;;;;;5095645;28;20446;-66
2022/06/10 02:10:28;;;;;;;3.80;3.70;;;;;;;;;;5095496;28;20402;-65
2022/06/10 02:12:58;;;;;;;3.50;3.40;;;;;;;;;;5095396;28;20394;-65
2022/06/10 02:15:27;;;;;;;4.10;3.90;;;;;;;;;;5095364;28;20458;-66
2022/06/10 02:18:01;;;;;;;3.57;3.47;;;;;;;;;;5095353;28;20460;-65
2022/06/10 02:20:30;;;;;;;3.97;3.53;;;;;;;;;;5095289;28;20433;-66
2022/06/10 02:22:58;;;;;;;3.70;3.60;;;;;;;;;;5095229;28;20412;-65
2022/06/10 02:25:33;;;;;;;3.33;3.23;;;;;;;;;;5095236;28;20389;-66
2022/06/10 02:28:02;;;;;;;4.83;4.47;;;;;;;;;;5095196;28;20457;-66
2022/06/10 02:30:47;;;;;;;4.03;3.80;;;;;;;;;;5094890;28;20488;-66
2022/06/10 02:33:13;;;;;;;5.67;4.13;;;;;;;;;;5095218;28;20811;-66
2022/06/10 02:35:54;;;;;;;6.03;3.60;;;;;;;;;;5095019;28;20381;-66
2022/06/10 02:38:19;;;;;;;4.37;4.13;;;;;;;;;;5094892;28;20491;-66
2022/06/10 02:41:08;;;;;;;3.97;3.77;;;;;;;;;;5094865;28;20807;-65
2022/06/10 02:43:38;;;;;;;3.43;3.30;;;;;;;;;;5094656;28;20790;-65
2022/06/10 02:46:07;;;;;;;4.27;3.87;;;;;;;;;;5094838;28;20398;-65
2022/06/10 02:48:40;;;;;;;4.77;3.43;;;;;;;;;;5093800;28;20466;-67
2022/06/10 02:51:06;;;;;;;3.70;3.30;;;;;;;;;;5094380;28;20473;-65
2022/06/10 02:53:32;;;;;;;3.80;3.60;;;;;;;;;;5094949;28;20506;-65
2022/06/10 02:55:58;;;;;;;8.37;3.63;;;;;;;;;;5094634;28;20397;-66
2022/06/10 03:01:16;;;;;;;3.43;3.30;;;;;;;;;;5094532;28;20895;-65
2022/06/10 03:04:01;;;;;;;7.73;3.27;;;;;;;;;;5094530;28;20390;-66
2022/06/10 03:06:37;;;;;;;3.03;2.93;;;;;;;;;;5094375;28;20425;-66
2022/06/10 03:09:25;;;;;;;5.90;3.67;;;;;;;;;;5094420;28;20397;-66
2022/06/10 03:12:00;;;;;;;4.27;3.47;;;;;;;;;;5094300;28;20470;-65
2022/06/10 03:14:49;;;;;;;8.90;4.13;;;;;;;;;;5094270;28;20392;-67
2022/06/10 03:17:18;;;;;;;3.30;3.00;;;;;;;;;;5094462;28;20880;-66
2022/06/10 03:20:02;;;;;;;3.40;3.10;;;;;;;;;;5092924;28;20455;-67
2022/06/10 03:22:47;;;;;;;9.93;3.33;;;;;;;;;;5094385;28;20479;-66
2022/06/10 03:25:19;;;;;;;3.20;3.10;;;;;;;;;;5092855;28;20479;-66
2022/06/10 03:28:00;;;;;;;3.10;3.00;;;;;;;;;;5094047;28;20478;-66
2022/06/10 03:30:30;;;;;;;3.63;3.43;;;;;;;;;;5093948;28;20457;-66
2022/06/10 03:33:11;;;;;;;3.40;3.27;;;;;;;;;;5093974;28;20752;-67
2022/06/10 03:35:41;;;;;;;6.03;3.17;;;;;;;;;;5092661;28;20460;-66
2022/06/10 03:38:08;;;;;;;3.90;3.70;;;;;;;;;;5093839;28;20464;-67
2022/06/10 03:40:34;;;;;;;5.07;3.27;;;;;;;;;;5093905;28;20401;-67
2022/06/10 03:43:01;;;;;;;3.50;3.20;;;;;;;;;;5093794;28;20764;-67
2022/06/10 03:45:30;;;;;;;3.27;3.07;;;;;;;;;;5093757;28;20783;-66
2022/06/10 03:47:56;;;;;;;4.63;3.67;;;;;;;;;;5093827;28;20479;-66
2022/06/10 03:50:24;;;;;;;3.60;3.30;;;;;;;;;;5093655;28;20401;-66
2022/06/10 03:52:50;;;;;;;3.43;3.23;;;;;;;;;;5093790;28;20481;-66
2022/06/10 03:55:18;;;;;;;3.67;3.30;;;;;;;;;;5093674;28;20393;-66
2022/06/10 03:57:44;;;;;;;3.13;3.10;;;;;;;;;;5093677;28;20460;-66
2022/06/10 04:00:14;;;;;;;7.13;3.13;;;;;;;;;;5093614;28;20466;-66
2022/06/10 04:02:40;;;;;;;4.33;2.87;;;;;;;;;;5092985;28;20414;-67
2022/06/10 04:05:08;;;;;;;2.87;2.87;;;;;;;;;;5093720;28;20809;-66
2022/06/10 04:07:34;;;;;;;3.10;2.90;;;;;;;;;;5093898;28;20404;-66
2022/06/10 04:10:00;;;;;;;3.00;2.90;;;;;;;;;;5093651;28;20864;-65
2022/06/10 04:12:26;;;;;;;3.23;3.13;;;;;;;;;;5093463;28;20393;-66
2022/06/10 04:14:53;;;;;;;3.73;3.43;;;;;;;;;;5093820;28;20469;-65
2022/06/10 04:17:19;;;;;;;4.10;3.90;;;;;;;;;;5093475;28;20872;-65
2022/06/10 04:19:45;;;;;;;4.43;3.70;;;;;;;;;;5093684;28;20393;-65
2022/06/10 04:22:12;;;;;;;5.90;3.63;;;;;;;;;;5093477;28;20398;-65
2022/06/10 04:24:37;;;;;;;4.57;4.00;;;;;;;;;;5093376;28;20398;-65
2022/06/10 04:27:04;;;;;;;4.10;3.70;;;;;;;;;;5093479;28;20398;-65
2022/06/10 04:29:30;;;;;;;4.00;3.70;;;;;;;;;;5093205;28;20940;-65
2022/06/10 04:31:56;;;;;;;3.23;2.97;;;;;;;;;;5093350;28;20876;-65
2022/06/10 04:34:22;;;;;;;3.57;3.30;;;;;;;;;;5093391;28;20400;-65
2022/06/10 04:36:48;;;;;;;5.20;3.80;;;;;;;;;;5093488;28;20530;-66
2022/06/10 04:39:14;;;;;;;4.27;3.57;;;;;;;;;;5093264;28;20463;-65
2022/06/10 04:41:40;;;;;;;4.97;3.20;;;;;;;;;;5093299;28;20393;-66
2022/06/10 04:44:06;;;;;;;3.77;3.57;;;;;;;;;;5093425;28;20415;-66
2022/06/10 04:46:37;;;;;;;3.13;2.93;;;;;;;;;;5093195;28;20597;-65
2022/06/10 04:49:06;;;;;;;4.20;3.77;;;;;;;;;;5091804;28;20425;-66
2022/06/10 04:51:33;;;;;;;3.83;3.53;;;;;;;;;;5093108;28;20465;-65
2022/06/10 04:53:59;;;;;;;6.47;4.20;;;;;;;;;;5093060;28;20408;-65
2022/06/10 04:56:25;;;;;;;3.97;3.60;;;;;;;;;;5093022;28;20506;-66
2022/06/10 04:58:51;;;;;;;4.53;4.10;;;;;;;;;;5093051;28;20417;-65
2022/06/10 05:01:17;;;;;;;4.37;3.97;;;;;;;;;;5093050;28;20546;-66
2022/06/10 05:03:43;;;;;;;7.87;3.67;;;;;;;;;;5093139;28;20408;-66
2022/06/10 05:06:10;;;;;;;5.50;5.00;;;;;;;;;;5092998;28;20401;-66
2022/06/10 05:08:36;;;;;;;6.43;3.90;;;;;;;;;;5092982;28;20417;-66
2022/06/10 05:11:02;;;;;;;4.43;4.03;;;;;;;;;;5092943;28;20440;-66
2022/06/10 05:13:28;;;;;;;5.93;4.13;;;;;;;;;;5094119;28;20449;-65
2022/06/10 05:15:54;;;;;;;4.17;3.90;;;;;;;;;;5096620;28;20397;-66
2022/06/10 05:18:22;;;;;;;4.30;4.00;;;;;;;;;;5096469;28;20468;-66
2022/06/10 05:20:48;;;;;;;5.17;3.50;;;;;;;;;;5096436;28;20475;-66
2022/06/10 05:23:16;;;;;;;4.00;3.70;;;;;;;;;;5096416;28;20393;-66
2022/06/10 05:25:42;;;;;;;10.27;4.60;;;;;;;;;;5096331;28;20416;-66
2022/06/10 05:28:08;;;;;;;3.77;3.47;;;;;;;;;;5096387;28;20876;-66
2022/06/10 05:30:34;;;;;;;8.00;3.73;;;;;;;;;;5096092;28;21026;-66
2022/06/10 05:33:01;;;;;;;6.80;3.80;;;;;;;;;;5096183;28;20443;-66
2022/06/10 05:35:28;;;;;;;6.17;3.83;;;;;;;;;;5096205;28;20408;-67
2022/06/10 05:37:54;;;;;;;15.43;4.80;;;;;;;;;;5096242;28;20824;-66
2022/06/10 05:40:22;;;;;;;5.57;3.93;;;;;;;;;;5096372;28;20480;-66
2022/06/10 05:42:48;;;;;;;7.70;4.70;;;;;;;;;;5096113;28;20485;-66
2022/06/10 05:45:17;;;;;;;7.37;4.57;;;;;;;;;;5095957;28;20398;-66
2022/06/10 05:47:43;;;;;;;10.83;4.50;;;;;;;;;;5095984;28;20404;-66
2022/06/10 05:50:14;;;;;;;9.40;4.93;;;;;;;;;;5095870;28;20411;-66
2022/06/10 05:52:40;;;;;;;7.60;5.10;;;;;;;;;;5095859;28;20403;-66
2022/06/10 05:55:07;;;;;;;11.00;5.43;;;;;;;;;;5095778;28;20399;-66
2022/06/10 05:57:33;;;;;;;6.30;4.67;;;;;;;;;;5095624;28;20468;-66
2022/06/10 05:59:59;;;;;;;5.87;4.77;;;;;;;;;;5096026;28;20424;-67
2022/06/10 06:02:25;;;;;;;11.93;4.80;;;;;;;;;;5095643;28;20409;-66
2022/06/10 06:04:52;;;;;;;6.30;4.50;;;;;;;;;;5095700;28;20405;-66
2022/06/10 06:07:22;;;;;;;9.87;4.90;;;;;;;;;;5095529;28;20874;-66
2022/06/10 06:09:48;;;;;;;4.77;4.33;;;;;;;;;;5095592;28;20425;-66
2022/06/10 06:12:15;;;;;;;5.17;4.70;;;;;;;;;;5095486;28;20424;-66
2022/06/10 06:14:41;;;;;;;9.60;4.67;;;;;;;;;;5095453;28;20396;-67
2022/06/10 06:17:07;;;;;;;12.67;5.13;;;;;;;;;;5095287;28;20961;-67
2022/06/10 06:19:34;;;;;;;7.00;4.80;;;;;;;;;;5095289;28;20398;-66
2022/06/10 06:22:00;;;;;;;9.27;5.10;;;;;;;;;;5094314;28;20435;-67
2022/06/10 06:24:26;;;;;;;9.63;4.63;;;;;;;;;;5094994;28;20403;-67
2022/06/10 06:26:53;;;;;;;5.23;4.80;;;;;;;;;;5094621;28;20405;-67
2022/06/10 06:29:20;;;;;;;7.60;4.73;;;;;;;;;;5095131;28;20455;-66
2022/06/10 06:31:46;;;;;;;18.60;4.70;;;;;;;;;;5095069;28;20415;-67
2022/06/10 06:34:12;;;;;;;9.40;4.10;;;;;;;;;;5095129;28;20403;-66
2022/06/10 06:36:42;;;;;;;7.27;4.40;;;;;;;;;;5094861;28;20454;-66
2022/06/10 06:39:08;;;;;;;12.90;4.73;;;;;;;;;;5095001;28;20501;-67
2022/06/10 06:41:35;;;;;;;6.50;4.17;;;;;;;;;;5095144;28;20464;-67
2022/06/10 06:44:04;;;;;;;4.60;3.73;;;;;;;;;;5094760;28;20874;-66
2022/06/10 06:46:31;;;;;;;7.27;3.67;;;;;;;;;;5094928;28;20411;-67
2022/06/10 06:48:57;;;;;;;6.87;3.60;;;;;;;;;;5095009;28;20403;-66
2022/06/10 06:51:24;;;;;;;3.50;3.20;;;;;;;;;;5094924;28;20507;-67
2022/06/10 06:53:50;;;;;;;3.80;3.50;;;;;;;;;;5094743;28;20397;-67
2022/06/10 06:56:16;;;;;;;4.13;3.83;;;;;;;;;;5094568;28;20408;-68
2022/06/10 06:58:42;;;;;;;7.53;3.87;;;;;;;;;;5094622;28;20412;-67
2022/06/10 07:01:09;;;;;;;5.43;3.97;;;;;;;;;;5094401;28;20400;-66
2022/06/10 07:03:35;;;;;;;8.80;4.83;;;;;;;;;;5094339;28;20453;-65
2022/06/10 07:06:01;;;;;;;6.40;3.87;;;;;;;;;;5094699;28;20480;-66
2022/06/10 07:08:31;;;;;;;14.27;3.80;;;;;;;;;;5094400;28;20410;-67
2022/06/10 07:10:58;;;;;;;8.30;3.70;;;;;;;;;;5094253;28;20910;-67
2022/06/10 07:13:24;;;;;;;8.87;3.90;;;;;;;;;;5094142;28;20417;-65
2022/06/10 07:15:50;;;;;;;5.27;3.67;;;;;;;;;;5094356;28;20393;-66
2022/06/10 07:18:17;;;;;;;9.57;3.70;;;;;;;;;;5094134;28;20562;-67
2022/06/10 07:20:44;;;;;;;6.77;4.30;;;;;;;;;;5094328;28;20393;-67
2022/06/10 07:23:11;;;;;;;4.63;3.30;;;;;;;;;;5094128;28;20467;-67
2022/06/10 07:25:36;;;;;;;9.07;3.77;;;;;;;;;;5093964;28;20405;-66
2022/06/10 07:28:03;;;;;;;7.80;3.27;;;;;;;;;;5094009;28;20483;-67
2022/06/10 07:30:30;;;;;;;4.73;3.60;;;;;;;;;;5093806;28;20550;-66
2022/06/10 07:32:57;;;;;;;4.73;3.30;;;;;;;;;;5094174;28;20459;-66
2022/06/10 07:35:23;;;;;;;6.60;2.93;;;;;;;;;;5094105;28;20484;-67
2022/06/10 07:37:50;;;;;;;5.70;3.10;;;;;;;;;;5092963;28;20467;-67
2022/06/10 07:43:02;;;;;;;4.77;2.67;;;;;;;;;;5094069;28;20926;-65
2022/06/10 07:45:28;;;;;;;6.80;2.90;;;;;;;;;;5093810;28;20426;-67
2022/06/10 07:47:54;;;;;;;4.63;2.80;;;;;;;;;;5093740;28;20440;-67
2022/06/10 07:50:23;;;;;;;2.77;2.47;;;;;;;;;;5093786;28;20923;-65
2022/06/10 07:52:49;;;;;;;4.50;2.57;;;;;;;;;;5093654;28;20387;-67
2022/06/10 07:55:15;;;;;;;3.23;2.83;;;;;;;;;;5093694;28;20391;-66
2022/06/10 07:57:41;;;;;;;3.67;3.03;;;;;;;;;;5093590;28;20823;-65
2022/06/10 08:00:10;;;;;;;4.80;2.97;;;;;;;;;;5093614;28;20401;-66
2022/06/10 08:02:36;;;;;;;3.00;2.80;;;;;;;;;;5093589;28;20402;-66
2022/06/10 08:05:03;;;;;;;6.77;3.27;;;;;;;;;;5093572;28;20855;-67
2022/06/10 08:07:29;;;;;;;7.13;3.23;;;;;;;;;;5093538;28;20404;-67
2022/06/10 08:09:55;;;;;;;4.80;2.70;;;;;;;;;;5093464;28;20407;-65
2022/06/10 08:12:21;;;;;;;4.30;3.10;;;;;;;;;;5093471;28;20411;-66
2022/06/10 08:14:47;;;;;;;7.77;2.80;;;;;;;;;;5093588;28;20946;-66
2022/06/10 08:17:13;;;;;;;3.90;3.00;;;;;;;;;;5093372;28;20466;-67
2022/06/10 08:19:40;;;;;;;3.67;2.93;;;;;;;;;;5093775;28;20404;-66
2022/06/10 08:24:51;;;;;;;11.50;2.40;;;;;;;;;;5093495;28;20396;-67
2022/06/10 08:27:17;;;;;;;9.70;3.30;;;;;;;;;;5093397;28;20406;-66
2022/06/10 08:29:44;;;;;;;6.50;2.93;;;;;;;;;;5093109;28;20455;-66
2022/06/10 08:32:10;;;;;;;8.57;2.63;;;;;;;;;;5093688;28;20768;-66
2022/06/10 08:34:36;;;;;;;11.57;2.90;;;;;;;;;;5093191;28;20396;-66
2022/06/10 08:37:02;;;;;;;8.23;3.07;;;;;;;;;;5093089;28;20467;-65
2022/06/10 08:39:29;;;;;;;4.40;2.60;;;;;;;;;;5093180;28;20867;-66
2022/06/10 08:42:12;;;;;;;3.17;2.00;;;;;;;;;;5093164;28;20423;-66
2022/06/10 08:44:45;;;;;;;2.47;2.30;;;;;;;;;;5093492;28;20401;-67
2022/06/10 08:47:30;;;;;;;4.03;2.60;;;;;;;;;;5093210;28;20408;-67
2022/06/10 08:50:02;;;;;;;5.40;2.20;;;;;;;;;;5096548;28;20395;-67
2022/06/10 08:52:35;;;;;;;2.50;1.87;;;;;;;;;;5097276;28;20422;-66
2022/06/10 08:55:24;;;;;;;6.93;2.53;;;;;;;;;;5096977;28;20433;-67
2022/06/10 08:57:50;;;;;;;10.83;2.60;;;;;;;;;;5096866;28;20474;-66
2022/06/10 09:00:18;;;;;;;3.73;1.93;;;;;;;;;;5096838;28;20432;-67
2022/06/10 09:02:56;;;;;;;5.33;1.80;;;;;;;;;;5097079;28;20412;-67
2022/06/10 09:05:27;;;;;;;3.33;2.20;;;;;;;;;;5096825;28;20657;-66
2022/06/10 09:07:56;;;;;;;2.80;2.20;;;;;;;;;;5096759;28;20406;-67
2022/06/10 09:10:25;;;;;;;3.57;1.90;;;;;;;;;;5096660;28;20434;-65
2022/06/10 09:12:57;;;;;;;2.83;1.80;;;;;;;;;;5096896;28;20467;-68
2022/06/10 09:15:24;;;;;;;8.33;2.10;;;;;;;;;;5096546;28;20877;-66
2022/06/10 09:17:54;;;;;;;8.13;1.97;;;;;;;;;;5096499;28;20537;-66
2022/06/10 09:20:23;;;;;;;5.23;1.77;;;;;;;;;;5096441;28;20484;-67
2022/06/10 09:22:52;;;;;;;3.67;1.83;;;;;;;;;;5096427;28;20413;-66
2022/06/10 09:25:27;;;;;;;1.87;1.77;;;;;;;;;;5096427;28;20396;-66
2022/06/10 09:27:57;;;;;;;2.27;2.07;;;;;;;;;;5096336;28;20404;-67
2022/06/10 09:30:27;;;;;;;6.37;2.07;;;;;;;;;;5096124;28;20546;-66
2022/06/10 09:32:56;;;;;;;6.40;2.10;;;;;;;;;;5096315;28;20954;-67
2022/06/10 09:35:23;;;;;;;3.57;1.90;;;;;;;;;;5096249;28;20459;-67
2022/06/10 09:37:49;;;;;;;5.40;2.00;;;;;;;;;;5096159;28;20467;-67
2022/06/10 09:40:37;;;;;;;5.27;2.17;;;;;;;;;;5096081;28;20396;-67
2022/06/10 09:43:22;;;;;;;7.00;1.57;;;;;;;;;;5096076;28;20909;-67
2022/06/10 09:45:56;;;;;;;2.40;1.50;;;;;;;;;;5095887;28;20426;-65
2022/06/10 09:48:47;;;;;;;4.40;1.43;;;;;;;;;;5095924;28;20401;-67
2022/06/10 09:51:33;;;;;;;2.10;1.40;;;;;;;;;;5094587;28;20413;-67
2022/06/10 09:54:15;;;;;;;5.27;2.10;;;;;;;;;;5054809;28;20423;-66
2022/06/10 09:56:53;;;;;;;2.73;1.07;;;;;;;;;;5095732;28;20825;-65
2022/06/10 09:59:22;;;;;;;6.53;1.80;;;;;;;;;;5095397;28;20410;-66
2022/06/10 10:01:58;;;;;;;3.70;1.57;;;;;;;;;;5095375;28;20411;-66
2022/06/10 10:04:42;;;;;;;4.57;1.60;;;;;;;;;;5095689;28;20400;-66
2022/06/10 10:07:20;;;;;;;5.17;1.33;;;;;;;;;;5095579;28;20481;-66
2022/06/10 10:09:56;;;;;;;6.13;1.60;;;;;;;;;;5095558;28;20500;-65
2022/06/10 10:12:43;;;;;;;1.83;1.40;;;;;;;;;;5095513;28;20409;-67
2022/06/10 10:15:27;;;;;;;2.87;1.73;;;;;;;;;;5095447;28;20405;-66
2022/06/10 10:17:56;;;;;;;2.83;1.90;;;;;;;;;;5095222;28;20966;-65
2022/06/10 10:20:26;;;;;;;3.83;1.77;;;;;;;;;;5095615;28;20416;-65
2022/06/10 10:23:02;;;;;;;3.70;1.80;;;;;;;;;;5095592;28;20401;-68
2022/06/10 10:25:28;;;;;;;2.33;1.43;;;;;;;;;;5095014;28;20951;-66
2022/06/10 10:27:55;;;;;;;3.53;1.70;;;;;;;;;;5095235;28;20500;-67
2022/06/10 10:30:38;;;;;;;2.93;1.30;;;;;;;;;;5094923;28;20491;-68
2022/06/10 10:33:14;;;;;;;1.63;1.30;;;;;;;;;;5095109;28;20411;-68
2022/06/10 10:35:48;;;;;;;4.60;1.70;;;;;;;;;;5094964;28;20386;-67
2022/06/10 10:38:33;;;;;;;3.60;1.60;;;;;;;;;;5095058;28;20566;-66
2022/06/10 10:40:59;;;;;;;3.03;1.77;;;;;;;;;;5095111;28;20520;-66
2022/06/10 10:43:27;;;;;;;3.57;1.60;;;;;;;;;;5094829;28;20872;-66
2022/06/10 10:45:56;;;;;;;1.97;1.33;;;;;;;;;;5095013;28;20399;-68
2022/06/10 10:48:25;;;;;;;6.83;2.13;;;;;;;;;;5094791;28;20452;-67
2022/06/10 10:50:56;;;;;;;1.97;1.70;;;;;;;;;;5094824;28;20402;-65
2022/06/10 10:53:24;;;;;;;2.93;1.60;;;;;;;;;;5094800;28;20400;-66
2022/06/10 10:55:53;;;;;;;2.63;1.30;;;;;;;;;;5094690;28;20485;-67
2022/06/10 10:58:23;;;;;;;6.00;1.57;;;;;;;;;;5094635;28;20469;-66
2022/06/10 11:01:00;;;;;;;9.53;1.83;;;;;;;;;;5094666;28;20485;-67
2022/06/10 11:03:28;;;;;;;4.10;1.60;;;;;;;;;;5094514;28;20446;-65
2022/06/10 11:05:55;;;;;;;3.00;1.47;;;;;;;;;;5094506;28;20393;-66
2022/06/10 11:08:24;;;;;;;1.70;1.40;;;;;;;;;;5094350;28;20415;-66
2022/06/10 11:11:11;;;;;;;4.80;1.50;;;;;;;;;;5094541;28;20438;-66
2022/06/10 11:13:44;;;;;;;2.90;1.50;;;;;;;;;;5094311;28;20412;-66
2022/06/10 11:16:19;;;;;;;4.60;1.50;;;;;;;;;;5094312;28;20413;-65
2022/06/10 11:18:49;;;;;;;4.17;1.57;;;;;;;;;;5094259;28;20473;-66
2022/06/10 11:21:15;;;;;;;2.67;1.40;;;;;;;;;;5094235;28;20424;-65
2022/06/10 11:23:52;;;;;;;1.73;1.33;;;;;;;;;;5094138;28;20918;-66
2022/06/10 11:26:20;;;;;;;1.97;1.37;;;;;;;;;;5094063;28;20465;-65
2022/06/10 11:28:47;;;;;;;4.53;1.57;;;;;;;;;;5094194;28;20403;-66
2022/06/10 11:31:42;;;;;;;1.73;1.30;;;;;;;;;;5094070;28;20412;-66
2022/06/10 11:34:15;;;;;;;1.43;1.33;;;;;;;;;;5077058;28;20474;-66
2022/06/10 11:36:46;;;;;;;2.37;1.40;;;;;;;;;;5093959;28;20617;-66
2022/06/10 11:39:17;;;;;;;3.40;1.50;;;;;;;;;;5094015;28;20424;-66
2022/06/10 11:41:57;;;;;;;4.53;1.93;;;;;;;;;;5094099;28;20405;-66
2022/06/10 11:44:23;;;;;;;3.13;1.70;;;;;;;;;;5093860;28;20771;-66
2022/06/10 11:46:52;;;;;;;3.10;1.20;;;;;;;;;;5093853;28;20409;-66
2022/06/10 11:49:28;;;;;;;4.10;1.30;;;;;;;;;;5093790;28;20408;-66
2022/06/10 11:51:57;;;;;;;3.00;1.40;;;;;;;;;;5094022;28;20412;-66
2022/06/10 11:54:34;;;;;;;5.17;1.37;;;;;;;;;;5094061;28;20590;-66
2022/06/10 12:00:03;;;;;;;3.67;1.50;;;;;;;;;;5093673;28;20414;-67
2022/06/10 12:02:39;;;;;;;1.70;1.40;;;;;;;;;;5093644;28;20418;-66
2022/06/10 12:05:25;;;;;;;1.63;1.20;;;;;;;;;;5093546;28;20423;-65
2022/06/10 12:07:59;;;;;;;1.87;1.77;;;;;;;;;;5093151;28;20435;-65
2022/06/10 12:10:26;;;;;;;1.17;1.00;;;;;;;;;;5092265;28;20412;-65
2022/06/10 12:12:54;;;;;;;1.47;1.37;;;;;;;;;;5093766;28;20418;-66
2022/06/10 12:15:22;;;;;;;3.47;1.70;;;;;;;;;;5093497;28;20423;-66
2022/06/10 12:17:49;;;;;;;1.83;1.70;;;;;;;;;;5093445;28;20461;-66
2022/06/10 12:20:21;;;;;;;1.20;1.10;;;;;;;;;;5093464;28;20398;-67
2022/06/10 12:22:47;;;;;;;1.37;1.27;;;;;;;;;;5093330;28;20775;-67
2022/06/10 12:25:28;;;;;;;1.30;1.20;;;;;;;;;;5097556;28;20488;-67
2022/06/10 12:28:07;;;;;;;2.10;1.87;;;;;;;;;;5096314;28;20527;-66
2022/06/10 12:30:45;;;;;;;2.30;1.37;;;;;;;;;;5097240;28;20453;-65
2022/06/10 12:33:18;;;;;;;6.83;1.70;;;;;;;;;;5097282;28;20413;-65
2022/06/10 12:35:44;;;;;;;2.10;1.13;;;;;;;;;;5095710;28;20417;-65
2022/06/10 12:38:15;;;;;;;4.87;1.43;;;;;;;;;;5096913;28;20504;-64
2022/06/10 12:40:44;;;;;;;1.90;1.20;;;;;;;;;;5097323;28;20496;-65
2022/06/10 12:43:13;;;;;;;4.70;1.87;;;;;;;;;;5097105;28;20756;-64
2022/06/10 12:45:52;;;;;;;1.73;1.20;;;;;;;;;;5097168;28;20477;-65
2022/06/10 12:48:20;;;;;;;3.63;1.10;;;;;;;;;;5097098;28;20393;-65
2022/06/10 12:50:58;;;;;;;3.37;1.23;;;;;;;;;;5096993;28;20406;-64
2022/06/10 12:53:29;;;;;;;2.60;1.70;;;;;;;;;;5096892;28;20815;-65
2022/06/10 12:55:56;;;;;;;3.63;1.40;;;;;;;;;;5096598;28;20404;-65
2022/06/10 12:58:37;;;;;;;1.83;1.50;;;;;;;;;;5096810;28;20508;-65
2022/06/10 13:01:18;;;;;;;3.10;1.50;;;;;;;;;;5095081;28;20504;-65
2022/06/10 13:03:44;;;;;;;1.30;1.20;;;;;;;;;;5096739;28;20463;-65
2022/06/10 13:06:29;;;;;;;2.43;1.57;;;;;;;;;;5096801;28;20495;-65
2022/06/10 13:08:57;;;;;;;2.07;1.27;;;;;;;;;;5096702;28;20397;-64
2022/06/10 13:11:34;;;;;;;2.10;1.30;;;;;;;;;;5096790;28;20806;-66
2022/06/10 13:14:10;;;;;;;3.27;1.87;;;;;;;;;;5096684;28;20401;-66
2022/06/10 13:16:42;;;;;;;7.13;1.30;;;;;;;;;;5095499;28;20795;-65
2022/06/10 13:19:24;;;;;;;4.13;1.57;;;;;;;;;;5096593;28;20409;-65
2022/06/10 13:21:51;;;;;;;2.90;1.50;;;;;;;;;;5096595;28;20401;-66
2022/06/10 13:30:56;;;;;;;4.63;1.50;;;;;;;;;;5106358;22;20801;31
2022/06/10 13:33:22;;;;;;;2.47;1.40;;;;;;;;;;4918326;29;20453;-64
2022/06/10 13:35:50;;;;;;;1.40;1.30;;;;;;;;;;4919618;29;20421;-65
2022/06/10 13:38:20;;;;;;;3.53;1.47;;;;;;;;;;4919624;29;20890;-65
2022/06/10 13:40:47;;;;;;;3.80;1.20;;;;;;;;;;4919779;29;20410;-65
2022/06/10 13:43:20;;;;;;;2.40;1.43;;;;;;;;;;4919720;29;20437;-66
2022/06/10 13:45:46;;;;;;;1.93;1.07;;;;;;;;;;4934177;29;20924;-65
2022/06/10 13:48:20;;;;;;;3.17;1.57;;;;;;;;;;4919602;29;20418;-65
2022/06/10 13:53:39;;;;;;;2.47;1.30;;;;;;;;;;4919705;29;20440;-66
2022/06/10 13:56:08;;;;;;;1.30;1.20;;;;;;;;;;4919437;29;20436;-66
2022/06/10 13:58:37;;;;;;;2.87;1.57;;;;;;;;;;4919253;29;20469;-66
2022/06/10 14:01:20;;;;;;;3.27;1.37;;;;;;;;;;4919174;29;20496;-65
2022/06/10 14:03:55;;;;;;;2.03;1.43;;;;;;;;;;4933878;29;20518;-67
2022/06/10 14:06:23;;;;;;;2.07;1.47;;;;;;;;;;4918981;29;20417;-65
2022/06/10 14:08:54;;;;;;;2.23;1.10;;;;;;;;;;4919189;29;20522;-66
2022/06/10 14:11:26;;;;;;;1.37;1.37;;;;;;;;;;4919178;29;21000;-66
2022/06/10 14:13:54;;;;;;;6.40;1.60;;;;;;;;;;4919094;29;20455;-66
2022/06/10 14:16:20;;;;;;;1.20;1.10;;;;;;;;;;4919073;29;20417;-66
2022/06/10 14:18:46;;;;;;;4.03;1.57;;;;;;;;;;4919044;29;20548;-66
2022/06/10 14:21:13;;;;;;;2.20;1.43;;;;;;;;;;4918858;29;20419;-66
2022/06/10 14:23:59;;;;;;;9.27;1.67;;;;;;;;;;4918926;29;20472;-66
2022/06/10 14:26:25;;;;;;;1.47;1.30;;;;;;;;;;4918784;29;20448;-66
2022/06/10 14:28:53;;;;;;;4.80;1.33;;;;;;;;;;4919041;29;20425;-66
2022/06/10 14:31:19;;;;;;;3.70;1.70;;;;;;;;;;4923154;29;20479;-66
2022/06/10 14:33:49;;;;;;;1.43;1.10;;;;;;;;;;4936453;29;20786;-66
2022/06/10 14:36:15;;;;;;;2.00;1.30;;;;;;;;;;4937713;29;20184;-67
2022/06/10 14:38:43;;;;;;;3.43;1.20;;;;;;;;;;4936248;29;20483;-65
2022/06/10 14:41:10;;;;;;;2.53;1.63;;;;;;;;;;4937572;29;20776;-66
2022/06/10 14:43:38;;;;;;;1.53;1.03;;;;;;;;;;4937439;29;20509;-66
2022/06/10 14:46:16;;;;;;;4.20;1.50;;;;;;;;;;4937028;29;20411;-66
2022/06/10 14:48:44;;;;;;;2.83;1.30;;;;;;;;;;4937381;29;20413;-66
2022/06/10 14:51:28;;;;;;;2.10;1.33;;;;;;;;;;4937284;29;20456;-65
2022/06/10 14:54:00;;;;;;;2.47;1.40;;;;;;;;;;4937316;29;20511;-66
2022/06/10 14:56:29;;;;;;;3.90;1.30;;;;;;;;;;4937506;29;20412;-66
2022/06/10 14:58:55;;;;;;;1.97;1.20;;;;;;;;;;4937086;29;20472;-66
2022/06/10 15:01:24;;;;;;;2.47;1.30;;;;;;;;;;4937092;29;20487;-66
2022/06/10 15:03:50;;;;;;;3.00;1.30;;;;;;;;;;4937377;29;20409;-66
2022/06/10 15:06:28;;;;;;;4.73;1.43;;;;;;;;;;4937066;29;20416;-66
2022/06/10 15:08:58;;;;;;;2.67;1.20;;;;;;;;;;4936961;29;20963;-65
2022/06/10 15:11:27;;;;;;;1.30;1.20;;;;;;;;;;4937048;29;20412;-66
2022/06/10 15:13:54;;;;;;;2.43;1.03;;;;;;;;;;4936961;29;20416;-65
2022/06/10 15:16:20;;;;;;;1.90;1.40;;;;;;;;;;4935678;29;20485;-66
2022/06/10 15:18:47;;;;;;;1.20;1.10;;;;;;;;;;4936831;29;20567;-66
2022/06/10 15:21:17;;;;;;;2.20;1.80;;;;;;;;;;4935654;29;20436;-66
2022/06/10 15:23:45;;;;;;;4.53;1.67;;;;;;;;;;4936810;29;20503;-66
2022/06/10 15:26:11;;;;;;;1.27;1.13;;;;;;;;;;4936770;29;20926;-66